createdAt,value
2017-11-30T00:00:06.555Z,14.63
2017-11-30T00:02:34.790Z,13.13
2017-11-30T00:05:02.273Z,11.73
2017-11-30T00:07:29.752Z,14.90
2017-11-30T00:09:57.979Z,13.60
2017-11-30T00:12:25.462Z,13.30
2017-11-30T00:14:52.933Z,12.87
2017-11-30T00:17:21.179Z,16.13
2017-11-30T00:19:48.643Z,12.60
2017-11-30T00:22:16.128Z,16.20
2017-11-30T00:24:44.360Z,17.80
2017-11-30T00:27:12.610Z,18.50
2017-11-30T00:29:40.073Z,14.50
2017-11-30T00:32:07.555Z,16.00
2017-11-30T00:34:35.026Z,14.90
2017-11-30T00:37:02.513Z,15.60
2017-11-30T00:39:30.749Z,15.50
2017-11-30T00:41:58.229Z,13.63
2017-11-30T00:44:32.480Z,14.50
2017-11-30T00:46:59.949Z,13.80
2017-11-30T00:49:27.421Z,17.70
2017-11-30T00:51:54.894Z,14.40
2017-11-30T00:54:22.372Z,12.57
2017-11-30T00:56:49.841Z,13.27
2017-11-30T00:59:17.325Z,13.50
2017-11-30T01:01:44.809Z,12.67
2017-11-30T01:04:12.288Z,12.90
2017-11-30T01:06:39.753Z,13.30
2017-11-30T01:09:07.229Z,11.17
2017-11-30T01:11:34.703Z,15.50
2017-11-30T01:14:02.957Z,14.00
2017-11-30T01:16:30.416Z,15.10
2017-11-30T01:18:57.890Z,14.33
2017-11-30T01:21:27.908Z,16.97
2017-11-30T01:23:56.140Z,14.90
2017-11-30T01:26:23.621Z,16.03
2017-11-30T01:28:51.079Z,16.07
2017-11-30T01:31:18.556Z,18.20
2017-11-30T01:33:46.799Z,14.53
2017-11-30T01:36:14.276Z,16.20
2017-11-30T01:38:41.741Z,17.63
2017-11-30T01:41:09.212Z,16.13
2017-11-30T01:43:37.460Z,14.47
2017-11-30T01:46:04.946Z,17.47
2017-11-30T01:48:33.191Z,15.90
2017-11-30T01:51:00.683Z,18.33
2017-11-30T01:53:28.919Z,15.77
2017-11-30T01:55:57.158Z,18.70
2017-11-30T01:58:24.628Z,16.80
2017-11-30T02:00:52.105Z,20.03
2017-11-30T02:03:19.577Z,24.87
2017-11-30T02:05:47.054Z,21.23
2017-11-30T02:08:14.517Z,21.63
2017-11-30T02:10:42.760Z,22.30
2017-11-30T02:13:10.229Z,22.73
2017-11-30T02:15:37.700Z,18.30
2017-11-30T02:18:05.176Z,20.90
2017-11-30T02:20:33.413Z,19.53
2017-11-30T02:23:00.892Z,17.90
2017-11-30T02:25:28.357Z,22.77
2017-11-30T02:27:56.607Z,22.17
2017-11-30T02:30:24.074Z,31.03
2017-11-30T02:32:51.553Z,33.97
2017-11-30T02:35:19.790Z,30.37
2017-11-30T02:37:47.261Z,33.80
2017-11-30T02:40:14.729Z,27.40
2017-11-30T02:42:42.203Z,29.83
2017-11-30T02:45:10.437Z,25.93
2017-11-30T02:47:37.917Z,24.67
2017-11-30T02:50:05.385Z,26.53
2017-11-30T02:52:33.134Z,27.23
2017-11-30T02:55:00.597Z,21.80
2017-11-30T02:57:28.086Z,26.03
2017-11-30T02:59:56.321Z,29.60
2017-11-30T03:02:23.800Z,26.67
2017-11-30T03:04:51.261Z,27.13
2017-11-30T03:07:18.736Z,26.90
2017-11-30T03:09:46.973Z,28.40
2017-11-30T03:12:14.460Z,24.37
2017-11-30T03:14:42.721Z,26.20
2017-11-30T03:17:10.193Z,26.60
2017-11-30T03:19:38.428Z,24.63
2017-11-30T03:22:05.904Z,26.20
2017-11-30T03:24:33.392Z,33.87
2017-11-30T03:27:01.624Z,35.27
2017-11-30T03:29:29.109Z,27.33
2017-11-30T03:31:56.582Z,26.67
2017-11-30T03:34:24.822Z,26.03
2017-11-30T03:36:52.287Z,30.07
2017-11-30T03:39:19.760Z,25.07
2017-11-30T03:41:47.222Z,25.53
2017-11-30T03:44:15.476Z,24.60
2017-11-30T03:46:42.936Z,27.17
2017-11-30T03:49:10.407Z,25.77
2017-11-30T03:51:37.863Z,27.57
2017-11-30T03:54:05.340Z,22.90
2017-11-30T03:56:33.576Z,22.63
2017-11-30T03:59:01.048Z,26.47
2017-11-30T04:01:28.511Z,22.27
2017-11-30T04:03:55.984Z,21.80
2017-11-30T04:06:24.212Z,23.83
2017-11-30T04:08:51.686Z,23.50
2017-11-30T04:11:19.152Z,21.53
2017-11-30T04:13:46.618Z,22.80
2017-11-30T04:16:14.078Z,20.40
2017-11-30T04:18:41.557Z,24.83
2017-11-30T04:21:09.787Z,23.27
2017-11-30T04:23:37.269Z,22.33
2017-11-30T04:26:04.735Z,18.57
2017-11-30T04:28:32.209Z,21.67
2017-11-30T04:31:00.434Z,22.37
2017-11-30T04:33:27.899Z,21.97
2017-11-30T04:35:55.367Z,18.03
2017-11-30T04:38:22.827Z,20.73
2017-11-30T04:40:50.308Z,20.60
2017-11-30T04:43:18.541Z,21.40
2017-11-30T04:45:46.015Z,18.60
2017-11-30T04:48:13.471Z,16.90
2017-11-30T04:50:40.952Z,19.20
2017-11-30T04:53:08.416Z,17.50
2017-11-30T04:55:36.650Z,22.50
2017-11-30T04:58:04.114Z,16.33
2017-11-30T05:00:31.594Z,20.07
2017-11-30T05:02:59.059Z,22.07
2017-11-30T05:05:26.532Z,24.57
2017-11-30T05:07:54.770Z,18.90
2017-11-30T05:10:22.228Z,19.70
2017-11-30T05:12:49.688Z,20.70
2017-11-30T05:15:17.164Z,22.83
2017-11-30T05:17:44.631Z,21.30
2017-11-30T05:20:12.870Z,21.40
2017-11-30T05:22:40.337Z,19.80
2017-11-30T05:25:07.811Z,15.37
2017-11-30T05:27:35.258Z,19.33
2017-11-30T05:30:02.745Z,18.60
2017-11-30T05:32:30.968Z,17.03
2017-11-30T05:34:58.452Z,27.47
2017-11-30T05:37:25.923Z,25.83
2017-11-30T05:39:53.396Z,22.63
2017-11-30T05:42:21.629Z,25.30
2017-11-30T05:44:49.097Z,24.90
2017-11-30T05:47:16.583Z,21.30
2017-11-30T05:49:44.808Z,20.67
2017-11-30T05:52:12.278Z,23.83
2017-11-30T05:54:40.523Z,18.10
2017-11-30T05:57:07.998Z,23.23
2017-11-30T05:59:35.463Z,17.90
2017-11-30T06:02:02.948Z,28.50
2017-11-30T06:04:30.407Z,19.43
2017-11-30T06:06:57.894Z,17.07
2017-11-30T06:09:26.124Z,23.37
2017-11-30T06:11:53.599Z,20.23
2017-11-30T06:14:21.100Z,18.83
2017-11-30T06:16:48.581Z,22.13
2017-11-30T06:19:16.043Z,24.33
2017-11-30T06:21:43.524Z,21.43
2017-11-30T06:24:11.036Z,27.20
2017-11-30T06:26:38.524Z,20.90
2017-11-30T06:29:05.992Z,23.07
2017-11-30T06:31:33.466Z,24.10
2017-11-30T06:34:00.951Z,23.87
2017-11-30T06:36:28.415Z,21.27
2017-11-30T06:38:55.902Z,19.97
2017-11-30T06:41:23.370Z,18.27
2017-11-30T06:43:50.836Z,23.10
2017-11-30T06:46:18.299Z,22.90
2017-11-30T06:48:45.771Z,21.60
2017-11-30T06:51:13.287Z,21.37
2017-11-30T06:53:40.750Z,19.00
2017-11-30T06:56:09.290Z,23.43
2017-11-30T06:58:36.805Z,20.37
2017-11-30T07:01:04.270Z,24.70
2017-11-30T07:03:31.744Z,22.07
2017-11-30T07:05:59.206Z,27.87
2017-11-30T07:08:26.676Z,20.97
2017-11-30T07:10:54.908Z,25.40
2017-11-30T07:13:22.379Z,22.37
2017-11-30T07:15:49.831Z,20.87
2017-11-30T07:18:17.292Z,21.70
2017-11-30T07:20:44.772Z,22.23
2017-11-30T07:23:13.008Z,20.33
2017-11-30T07:25:40.480Z,24.90
2017-11-30T07:28:07.947Z,22.13
2017-11-30T07:30:35.426Z,21.70
2017-11-30T07:33:02.883Z,18.37
2017-11-30T07:35:31.123Z,19.50
2017-11-30T07:37:58.647Z,22.37
2017-11-30T07:40:26.123Z,16.83
2017-11-30T07:42:53.582Z,22.67
2017-11-30T07:45:21.052Z,25.83
2017-11-30T07:47:48.522Z,23.13
2017-11-30T07:50:16.017Z,20.87
2017-11-30T07:52:44.251Z,21.07
2017-11-30T07:55:11.724Z,27.20
2017-11-30T07:57:39.182Z,32.70
2017-11-30T08:00:06.658Z,29.67
2017-11-30T08:02:34.110Z,29.90
2017-11-30T08:05:01.593Z,26.97
2017-11-30T08:07:29.828Z,28.00
2017-11-30T08:09:57.304Z,23.30
2017-11-30T08:12:24.769Z,31.00
2017-11-30T08:14:53.011Z,23.87
2017-11-30T08:17:20.479Z,28.27
2017-11-30T08:19:47.972Z,31.90
2017-11-30T08:22:16.209Z,37.47
2017-11-30T08:24:43.672Z,40.27
2017-11-30T08:27:11.151Z,36.87
2017-11-30T08:29:38.634Z,30.37
2017-11-30T08:32:06.116Z,25.87
2017-11-30T08:34:33.571Z,20.33
2017-11-30T08:37:01.048Z,26.23
2017-11-30T08:39:28.514Z,17.93
2017-11-30T08:41:55.997Z,20.97
2017-11-30T08:44:24.243Z,18.60
2017-11-30T08:46:51.711Z,20.27
2017-11-30T08:49:19.187Z,14.90
2017-11-30T08:51:46.656Z,19.83
2017-11-30T08:54:14.897Z,18.23
2017-11-30T08:56:42.364Z,18.30
2017-11-30T08:59:09.816Z,13.67
2017-11-30T09:01:37.287Z,16.40
2017-11-30T09:04:04.747Z,14.13
2017-11-30T09:06:32.231Z,19.20
2017-11-30T09:08:59.691Z,14.93
2017-11-30T09:11:27.166Z,14.73
2017-11-30T09:13:54.627Z,15.63
2017-11-30T09:16:22.099Z,20.07
2017-11-30T09:18:49.567Z,17.67
2017-11-30T09:21:17.041Z,16.60
2017-11-30T09:23:44.508Z,22.23
2017-11-30T09:26:11.964Z,21.53
2017-11-30T09:28:39.435Z,17.80
2017-11-30T09:31:07.672Z,18.63
2017-11-30T09:33:35.143Z,17.23
2017-11-30T09:36:02.607Z,18.67
2017-11-30T09:38:30.079Z,19.10
2017-11-30T09:40:57.548Z,16.80
2017-11-30T09:43:25.791Z,16.80
2017-11-30T09:45:53.255Z,13.60
2017-11-30T09:48:20.774Z,14.37
2017-11-30T09:50:48.975Z,14.90
2017-11-30T09:53:16.456Z,16.80
2017-11-30T09:55:43.920Z,16.77
2017-11-30T09:58:11.390Z,18.37
2017-11-30T10:00:39.619Z,17.23
2017-11-30T10:03:07.083Z,11.00
2017-11-30T10:05:34.539Z,12.50
2017-11-30T10:08:02.016Z,12.30
2017-11-30T10:10:29.476Z,11.47
2017-11-30T10:12:56.941Z,11.60
2017-11-30T10:15:24.414Z,12.33
2017-11-30T10:17:52.651Z,14.27
2017-11-30T10:20:20.118Z,14.43
2017-11-30T10:22:47.587Z,10.70
2017-11-30T10:25:15.048Z,15.10
2017-11-30T10:27:42.513Z,15.70
2017-11-30T10:30:09.983Z,16.70
2017-11-30T10:32:38.219Z,17.93
2017-11-30T10:35:05.708Z,18.30
2017-11-30T10:37:33.162Z,13.47
2017-11-30T10:40:00.627Z,11.73
2017-11-30T10:42:28.865Z,16.83
2017-11-30T10:44:56.335Z,14.23
2017-11-30T10:47:23.798Z,12.47
2017-11-30T10:49:51.277Z,12.43
2017-11-30T10:52:19.505Z,12.23
2017-11-30T10:54:47.007Z,13.77
2017-11-30T10:57:14.472Z,12.80
2017-11-30T10:59:42.714Z,16.50
2017-11-30T11:02:10.171Z,14.53
2017-11-30T11:04:37.647Z,12.37
2017-11-30T11:07:05.104Z,12.23
2017-11-30T11:09:32.577Z,12.70
2017-11-30T11:12:00.804Z,14.57
2017-11-30T11:14:28.284Z,11.93
2017-11-30T11:16:55.752Z,13.83
2017-11-30T11:19:23.215Z,15.07
2017-11-30T11:21:50.686Z,12.40
2017-11-30T11:24:18.151Z,10.63
2017-11-30T11:26:46.380Z,11.30
2017-11-30T11:29:13.860Z,11.40
2017-11-30T11:31:41.332Z,13.80
2017-11-30T11:34:09.572Z,11.00
2017-11-30T11:36:37.027Z,12.70
2017-11-30T11:39:05.262Z,10.40
2017-11-30T11:41:33.522Z,11.27
2017-11-30T11:44:01.765Z,10.80
2017-11-30T11:46:29.227Z,11.23
2017-11-30T11:48:56.695Z,11.47
2017-11-30T11:51:24.159Z,11.90
2017-11-30T11:53:51.624Z,9.87
2017-11-30T11:56:19.105Z,10.00
2017-11-30T11:58:46.564Z,8.93
2017-11-30T12:01:14.037Z,9.80
2017-11-30T12:03:41.500Z,11.07
2017-11-30T12:06:08.968Z,8.90
2017-11-30T12:08:36.460Z,11.13
2017-11-30T12:11:03.923Z,11.53
2017-11-30T12:13:31.384Z,10.00
2017-11-30T12:15:58.855Z,9.10
2017-11-30T12:18:27.095Z,9.90
2017-11-30T12:20:54.590Z,8.80
2017-11-30T12:23:22.844Z,10.23
2017-11-30T12:25:50.344Z,9.43
2017-11-30T12:28:17.795Z,10.23
2017-11-30T12:30:45.259Z,9.23
2017-11-30T12:33:12.719Z,9.63
2017-11-30T12:35:40.175Z,10.83
2017-11-30T12:38:07.660Z,10.13
2017-11-30T12:40:35.116Z,9.97
2017-11-30T12:43:02.599Z,11.33
2017-11-30T12:45:30.053Z,9.10
2017-11-30T12:47:57.582Z,10.13
2017-11-30T12:50:25.047Z,10.27
2017-11-30T12:52:52.522Z,12.50
2017-11-30T12:55:20.746Z,9.70
2017-11-30T12:57:48.986Z,10.00
2017-11-30T13:00:16.441Z,13.10
2017-11-30T13:02:43.919Z,12.23
2017-11-30T13:05:11.372Z,9.57
2017-11-30T13:07:38.846Z,10.13
2017-11-30T13:10:07.080Z,9.27
2017-11-30T13:12:34.545Z,9.47
2017-11-30T13:15:02.011Z,9.77
2017-11-30T13:17:29.487Z,11.27
2017-11-30T13:19:56.948Z,10.93
2017-11-30T13:22:25.178Z,7.90
2017-11-30T13:24:52.633Z,6.73
2017-11-30T13:27:20.110Z,7.30
2017-11-30T13:29:47.567Z,7.47
2017-11-30T13:32:15.046Z,10.00
2017-11-30T13:34:42.498Z,9.67
2017-11-30T13:37:09.957Z,9.50
2017-11-30T13:39:37.437Z,10.57
2017-11-30T13:42:05.655Z,12.43
2017-11-30T13:44:33.134Z,13.63
2017-11-30T13:47:00.594Z,13.47
2017-11-30T13:49:28.059Z,10.33
2017-11-30T13:51:55.518Z,9.40
2017-11-30T13:54:22.978Z,9.00
2017-11-30T13:56:50.447Z,11.20
2017-11-30T13:59:17.909Z,8.07
2017-11-30T14:01:46.143Z,8.40
2017-11-30T14:04:13.611Z,8.87
2017-11-30T14:06:41.066Z,8.53
2017-11-30T14:09:09.445Z,9.03
2017-11-30T14:11:36.894Z,12.33
2017-11-30T14:14:04.353Z,8.57
2017-11-30T14:16:31.814Z,14.10
2017-11-30T14:19:00.037Z,9.27
2017-11-30T14:21:28.254Z,8.90
2017-11-30T14:23:55.717Z,10.53
2017-11-30T14:26:23.174Z,8.93
2017-11-30T14:28:50.642Z,12.77
2017-11-30T14:31:18.106Z,11.13
2017-11-30T14:33:45.588Z,11.23
2017-11-30T14:36:13.042Z,10.37
2017-11-30T14:38:40.509Z,11.03
2017-11-30T14:41:08.761Z,11.80
2017-11-30T14:43:36.232Z,9.53
2017-11-30T14:46:03.696Z,10.97
2017-11-30T14:48:31.149Z,12.20
2017-11-30T14:50:58.635Z,12.70
2017-11-30T14:53:26.872Z,14.60
2017-11-30T14:55:54.354Z,16.07
2017-11-30T14:58:22.590Z,13.13
2017-11-30T15:00:50.077Z,13.40
2017-11-30T15:03:17.550Z,15.70
2017-11-30T15:05:45.773Z,12.97
2017-11-30T15:08:13.230Z,13.63
2017-11-30T15:10:40.711Z,14.63
2017-11-30T15:13:08.166Z,17.50
2017-11-30T15:15:35.677Z,18.30
2017-11-30T15:18:03.138Z,16.57
2017-11-30T15:20:30.614Z,15.30
2017-11-30T15:22:58.123Z,18.30
2017-11-30T15:25:26.353Z,15.20
2017-11-30T15:27:53.817Z,12.87
2017-11-30T15:30:21.281Z,15.93
2017-11-30T15:32:48.749Z,15.73
2017-11-30T15:35:16.238Z,14.83
2017-11-30T15:37:44.479Z,14.60
2017-11-30T15:40:11.947Z,13.80
2017-11-30T15:42:39.397Z,15.30
2017-11-30T15:45:06.873Z,18.57
2017-11-30T15:47:34.342Z,12.20
2017-11-30T15:50:01.806Z,11.50
2017-11-30T15:52:30.037Z,14.10
2017-11-30T15:54:57.500Z,13.87
2017-11-30T15:57:24.969Z,16.33
2017-11-30T15:59:52.445Z,15.43
2017-11-30T16:02:19.925Z,14.80
2017-11-30T16:04:48.172Z,14.30
2017-11-30T16:07:15.630Z,16.30
2017-11-30T16:09:43.090Z,13.77
2017-11-30T16:12:10.564Z,13.37
2017-11-30T16:14:39.190Z,12.10
2017-11-30T16:17:06.667Z,15.17
2017-11-30T16:19:34.128Z,11.60
2017-11-30T16:22:02.127Z,12.87
2017-11-30T16:24:29.586Z,12.47
2017-11-30T16:26:57.076Z,16.00
2017-11-30T16:29:24.530Z,11.00
2017-11-30T16:31:52.025Z,20.80
2017-11-30T16:34:19.483Z,13.87
2017-11-30T16:36:46.968Z,19.43
2017-11-30T16:39:14.422Z,14.63
2017-11-30T16:41:41.901Z,13.83
2017-11-30T16:44:10.166Z,15.97
2017-11-30T16:46:37.641Z,14.47
2017-11-30T16:49:05.883Z,19.93
2017-11-30T16:51:33.346Z,13.40
2017-11-30T16:54:00.821Z,16.23
2017-11-30T16:59:02.338Z,15.77
2017-11-30T17:01:29.823Z,17.33
2017-11-30T17:03:57.287Z,17.23
2017-11-30T17:06:24.784Z,14.10
2017-11-30T17:08:53.012Z,14.57
2017-11-30T17:11:20.479Z,18.70
2017-11-30T17:13:47.957Z,17.53
2017-11-30T17:16:15.436Z,17.20
2017-11-30T17:18:43.667Z,22.37
2017-11-30T17:21:11.121Z,19.20
2017-11-30T17:23:38.619Z,22.10
2017-11-30T17:26:06.841Z,25.00
2017-11-30T17:28:34.309Z,19.80
2017-11-30T17:31:01.770Z,21.83
2017-11-30T17:33:29.246Z,21.17
2017-11-30T17:35:56.715Z,25.40
2017-11-30T17:38:24.182Z,20.00
2017-11-30T17:40:52.415Z,19.10
2017-11-30T17:43:19.883Z,20.13
2017-11-30T17:45:47.345Z,20.43
2017-11-30T17:48:14.814Z,20.60
2017-11-30T17:50:42.282Z,16.07
2017-11-30T17:53:10.538Z,17.70
2017-11-30T17:55:37.997Z,25.93
2017-11-30T17:58:05.478Z,21.80
2017-11-30T18:00:33.722Z,17.53
2017-11-30T18:03:01.196Z,18.73
2017-11-30T18:05:28.662Z,19.67
2017-11-30T18:07:56.133Z,21.03
2017-11-30T18:10:24.357Z,17.30
2017-11-30T18:12:51.838Z,21.30
2017-11-30T18:15:19.307Z,17.00
2017-11-30T18:17:46.781Z,17.00
2017-11-30T18:20:15.022Z,15.53
2017-11-30T18:22:42.547Z,19.70
2017-11-30T18:25:10.738Z,18.30
2017-11-30T18:27:38.214Z,20.43
2017-11-30T18:30:05.686Z,18.17
2017-11-30T18:32:33.422Z,18.90
2017-11-30T18:35:01.674Z,18.83
2017-11-30T18:37:29.147Z,20.40
2017-11-30T18:39:56.616Z,17.40
2017-11-30T18:42:24.079Z,14.83
2017-11-30T18:44:51.550Z,17.90
2017-11-30T18:47:19.009Z,16.80
2017-11-30T18:49:46.469Z,14.33
2017-11-30T18:52:13.950Z,14.20
2017-11-30T18:54:42.192Z,17.60
2017-11-30T18:57:09.655Z,16.70
2017-11-30T18:59:37.904Z,11.87
2017-11-30T19:02:05.362Z,15.30
2017-11-30T19:04:32.830Z,12.20
2017-11-30T19:07:00.325Z,14.90
2017-11-30T19:09:27.785Z,12.20
2017-11-30T19:11:55.243Z,15.00
2017-11-30T19:14:22.709Z,13.43
2017-11-30T19:16:50.938Z,14.17
2017-11-30T19:19:18.406Z,11.93
2017-11-30T19:21:45.860Z,12.73
2017-11-30T19:24:13.334Z,13.80
2017-11-30T19:26:40.802Z,15.47
2017-11-30T19:29:08.258Z,14.70
2017-11-30T19:31:35.729Z,13.10
2017-11-30T19:34:03.949Z,12.70
2017-11-30T19:36:31.435Z,18.27
2017-11-30T19:38:58.902Z,12.70
2017-11-30T19:41:26.373Z,15.27
2017-11-30T19:43:53.833Z,12.67
2017-11-30T19:46:21.308Z,14.20
2017-11-30T19:48:49.556Z,12.70
2017-11-30T19:51:17.030Z,14.00
2017-11-30T19:53:45.260Z,13.93
2017-11-30T19:56:12.721Z,13.30
2017-11-30T19:58:40.196Z,15.77
2017-11-30T20:01:07.659Z,14.60
2017-11-30T20:03:35.115Z,17.87
2017-11-30T20:06:02.590Z,12.03
2017-11-30T20:08:30.056Z,12.47
2017-11-30T20:10:58.294Z,15.30
2017-11-30T20:13:26.525Z,13.23
2017-11-30T20:15:53.999Z,17.23
2017-11-30T20:18:21.467Z,13.77
2017-11-30T20:20:48.959Z,12.53
2017-11-30T20:23:16.434Z,17.03
2017-11-30T20:25:43.910Z,13.83
2017-11-30T20:28:12.143Z,14.70
2017-11-30T20:30:39.618Z,13.33
2017-11-30T20:33:07.081Z,15.93
2017-11-30T20:35:34.557Z,17.23
2017-11-30T20:38:02.782Z,14.00
2017-11-30T20:40:30.254Z,14.70
2017-11-30T20:42:57.718Z,15.40
2017-11-30T20:45:25.182Z,15.10
2017-11-30T20:47:52.658Z,15.23
2017-11-30T20:50:20.897Z,15.20
2017-11-30T20:52:48.370Z,15.40
2017-11-30T20:55:15.835Z,16.30
2017-11-30T20:57:43.315Z,13.67
2017-11-30T21:00:11.546Z,13.87
2017-11-30T21:02:39.023Z,14.00
2017-11-30T21:05:06.499Z,15.00
2017-11-30T21:07:34.804Z,13.43
2017-11-30T21:10:02.203Z,16.03
2017-11-30T21:12:29.679Z,13.40
2017-11-30T21:14:57.143Z,12.63
2017-11-30T21:17:24.613Z,10.80
2017-11-30T21:19:52.845Z,14.30
2017-11-30T21:22:20.404Z,12.87
2017-11-30T21:24:48.582Z,13.77
2017-11-30T21:27:16.817Z,12.07
2017-11-30T21:29:44.282Z,11.23
2017-11-30T21:32:11.767Z,12.47
2017-11-30T21:34:39.230Z,11.20
2017-11-30T21:37:06.706Z,12.40
2017-11-30T21:39:34.173Z,12.47
2017-11-30T21:42:01.651Z,12.87
2017-11-30T21:44:29.882Z,23.37
2017-11-30T21:46:57.355Z,26.93
2017-11-30T21:49:24.835Z,21.60
2017-11-30T21:51:53.058Z,23.07
2017-11-30T21:54:20.581Z,23.47
2017-11-30T21:56:48.002Z,21.07
2017-11-30T21:59:15.474Z,21.37
2017-11-30T22:01:42.930Z,18.53
2017-11-30T22:04:10.407Z,20.63
2017-11-30T22:06:38.643Z,20.97
2017-11-30T22:09:06.124Z,20.40
2017-11-30T22:11:33.686Z,18.17
2017-11-30T22:14:01.377Z,21.47
2017-11-30T22:16:28.873Z,21.80
2017-11-30T22:18:56.345Z,18.27
2017-11-30T22:21:23.814Z,17.97
2017-11-30T22:23:51.302Z,19.73
2017-11-30T22:26:19.526Z,19.60
2017-11-30T22:28:46.993Z,22.70
2017-11-30T22:31:14.474Z,22.00
2017-11-30T22:33:41.957Z,24.47
2017-11-30T22:36:09.432Z,25.40
2017-11-30T22:38:37.199Z,20.63
2017-11-30T22:41:04.650Z,21.00
2017-11-30T22:43:32.129Z,18.10
2017-11-30T22:46:12.302Z,21.20
2017-11-30T22:48:39.773Z,22.17
2017-11-30T22:51:07.236Z,21.07
2017-11-30T22:53:34.701Z,20.73
2017-11-30T22:56:02.158Z,20.40
2017-11-30T22:58:29.630Z,20.90
2017-11-30T23:00:57.863Z,19.57
2017-11-30T23:03:25.354Z,23.80
2017-11-30T23:05:53.590Z,20.70
2017-11-30T23:08:21.047Z,20.93
2017-11-30T23:10:48.514Z,21.17
2017-11-30T23:13:15.983Z,22.27
2017-11-30T23:15:43.455Z,21.40
2017-11-30T23:18:10.922Z,21.07
2017-11-30T23:20:38.395Z,19.73
2017-11-30T23:23:06.626Z,22.57
2017-11-30T23:25:34.103Z,22.60
2017-11-30T23:28:01.654Z,21.30
2017-11-30T23:30:29.139Z,22.37
2017-11-30T23:32:57.373Z,21.70
2017-11-30T23:35:24.847Z,21.70
2017-11-30T23:37:52.308Z,25.00
2017-11-30T23:40:19.804Z,21.67
2017-11-30T23:42:47.279Z,22.50
2017-11-30T23:45:14.741Z,22.10
2017-11-30T23:47:42.218Z,23.50
2017-11-30T23:50:09.690Z,25.37
2017-11-30T23:52:37.167Z,21.70
2017-11-30T23:55:04.637Z,23.40
2017-11-30T23:57:32.862Z,23.40
